Terminal Aerodrome Forecast
Issued by NWS

Home | Current Version | Previous Version | Text Only | Print | Product List | Glossary On
Versions: 1 2 3 4 5 6 7 8 9 10 11 12 13 14 15 16 17 18 19 20 21 22 23 24 25 26 27 28 29 30 31 32 33 34
000
FTUS41 KBOX 291401 AAA
TAFBED
TAF AMD
KBED 291401Z 2914/3012 05008KT P6SM BKN027
     FM291600 08007KT P6SM SCT035
     FM300100 13005KT P6SM SCT035
     FM300400 VRB03KT P6SM SCT250=

USA.gov is the U.S. government's official web portal to all federal, state and local government web resources and services.